Time;durP1;ratioP1;P1;durP2;ratioP2;P2;SDS_P1;SDS_P2;PMS_P1;PMS_P2;Temp;Humidity;BMP_temperature;BMP_pressure;BME280_temperature;BME280_humidity;BME280_pressure;Samples;Min_cycle;Max_cycle;Signal;HPM_P1;HPM_P2
2023/03/02 00:01:56;;;;;;;;;;;;;;;25.64;52.82;97424.39;593183;239;63012;-69
2023/03/02 00:04:41;;;;;;;;;;;;;;;25.62;52.28;97419.31;593268;239;66663;-69
2023/03/02 00:07:10;;;;;;;;;;;;;;;25.62;52.29;97415.83;593259;239;66485;-69
2023/03/02 00:09:38;;;;;;;;;;;;;;;25.61;52.84;97414.21;593281;239;62749;-69
2023/03/02 00:12:06;;;;;;;;;;;;;;;25.60;52.54;97412.63;593250;239;68798;-69
2023/03/02 00:14:34;;;;;;;;;;;;;;;25.59;52.05;97406.45;593295;239;68883;-69
2023/03/02 00:17:01;;;;;;;;;;;;;;;25.59;53.35;97406.45;593257;239;65067;-69
2023/03/02 00:19:29;;;;;;;;;;;;;;;25.57;52.95;97397.86;593276;239;68744;-69
2023/03/02 00:21:56;;;;;;;;;;;;;;;25.57;53.09;97399.75;593267;239;68669;-68
2023/03/02 00:24:24;;;;;;;;;;;;;;;25.57;51.62;97400.55;593279;239;65122;-69
2023/03/02 00:26:52;;;;;;;;;;;;;;;25.57;53.57;97402.44;593270;239;68891;-70
2023/03/02 00:29:19;;;;;;;;;;;;;;;25.56;54.08;97398.92;593265;239;68584;-70
2023/03/02 00:31:47;;;;;;;;;;;;;;;25.56;53.96;97392.75;593267;239;63719;-70
2023/03/02 00:34:15;;;;;;;;;;;;;;;25.55;53.83;97399.23;593265;239;69194;-70
2023/03/02 00:36:43;;;;;;;;;;;;;;;25.54;53.63;97393.06;593255;239;68541;-70
2023/03/02 00:39:10;;;;;;;;;;;;;;;25.54;53.86;97384.19;593294;239;64892;-70
2023/03/02 00:41:38;;;;;;;;;;;;;;;25.52;51.86;97387.16;593261;239;69474;-70
2023/03/02 00:44:05;;;;;;;;;;;;;;;25.53;53.17;97379.88;593286;239;68386;-70
2023/03/02 00:46:33;;;;;;;;;;;;;;;25.51;53.03;97380.19;593238;239;62750;-70
2023/03/02 00:49:01;;;;;;;;;;;;;;;25.52;54.98;97383.67;593249;236;67833;-70
2023/03/02 00:51:28;;;;;;;;;;;;;;;25.51;55.58;97376.67;593276;239;69016;-70
2023/03/02 00:53:55;;;;;;;;;;;;;;;25.50;54.34;97369.70;593220;239;64952;-70
2023/03/02 00:56:23;;;;;;;;;;;;;;;25.49;53.55;97374.30;593240;239;66531;-71
2023/03/02 00:58:51;;;;;;;;;;;;;;;25.49;54.84;97373.50;593236;239;69525;-70
2023/03/02 01:01:18;;;;;;;;;;;;;;;25.48;53.03;97378.05;593261;239;65091;-70
2023/03/02 01:03:47;;;;;;;;;;;;;;;25.47;53.52;97376.47;593302;237;46031;-68
2023/03/02 01:06:17;;;;;;;;;;;;;;;25.47;53.45;97376.47;593257;239;67234;-69
2023/03/02 01:08:45;;;;;;;;;;;;;;;25.46;53.83;97378.36;593292;239;65822;-70
2023/03/02 01:11:14;;;;;;;;;;;;;;;25.43;51.87;97365.50;593244;239;68323;-70
2023/03/02 01:13:41;;;;;;;;;;;;;;;25.45;54.74;97365.19;593242;239;69419;-70
2023/03/02 01:16:09;;;;;;;;;;;;;;;25.43;53.39;97376.26;593237;239;64961;-70
2023/03/02 01:18:37;;;;;;;;;;;;;;;25.43;53.44;97364.70;593309;239;67627;-70
2023/03/02 01:21:06;;;;;;;;;;;;;;;25.43;54.89;97365.50;593242;239;68742;-70
2023/03/02 01:23:33;;;;;;;;;;;;;;;25.43;53.46;97365.50;593267;239;65356;-70
2023/03/02 01:26:01;;;;;;;;;;;;;;;25.42;53.30;97363.08;593261;239;68672;-70
2023/03/02 01:28:28;;;;;;;;;;;;;;;25.41;54.10;97362.29;593275;239;68626;-70
2023/03/02 01:30:56;;;;;;;;;;;;;;;25.40;53.74;97363.39;593337;239;65070;-70
2023/03/02 01:33:23;;;;;;;;;;;;;;;25.40;53.67;97359.88;593273;239;68337;-70
2023/03/02 01:35:51;;;;;;;;;;;;;;;25.39;52.20;97359.08;593269;239;68446;-70
2023/03/02 01:38:18;;;;;;;;;;;;;;;25.38;53.05;97352.11;593273;239;65095;-70
2023/03/02 01:40:46;;;;;;;;;;;;;;;25.37;52.56;97350.53;593287;239;69206;-70
2023/03/02 01:43:14;;;;;;;;;;;;;;;25.37;54.07;97353.22;593303;239;68301;-70
2023/03/02 01:45:44;;;;;;;;;;;;;;;25.38;53.38;97357.49;593281;239;65089;-70
2023/03/02 01:48:13;;;;;;;;;;;;;;;25.37;53.07;97355.08;593219;236;68593;-70
2023/03/02 01:50:41;;;;;;;;;;;;;;;25.37;53.91;97355.91;593252;239;69045;-70
2023/03/02 01:53:09;;;;;;;;;;;;;;;25.36;54.29;97356.19;593278;239;65664;-70
2023/03/02 01:55:38;;;;;;;;;;;;;;;25.35;52.89;97355.39;593265;239;68501;-70
2023/03/02 01:58:06;;;;;;;;;;;;;;;25.34;53.71;97351.08;593316;239;68539;-70
2023/03/02 02:00:35;;;;;;;;;;;;;;;25.35;54.81;97357.28;593233;239;62857;-70
2023/03/02 02:03:10;;;;;;;;;;;;;;;25.34;52.25;97352.98;593231;239;66053;-68
2023/03/02 02:05:39;;;;;;;;;;;;;;;25.32;52.45;97355.97;593224;239;66655;-68
2023/03/02 02:08:07;;;;;;;;;;;;;;;25.32;51.79;97357.84;593256;239;65031;-68
2023/03/02 02:10:35;;;;;;;;;;;;;;;25.31;53.00;97351.67;593276;239;68737;-68
2023/03/02 02:13:02;;;;;;;;;;;;;;;25.32;55.38;97350.59;593225;239;69336;-68
2023/03/02 02:15:30;;;;;;;;;;;;;;;25.31;53.12;97346.28;593239;239;65019;-68
2023/03/02 02:17:57;;;;;;;;;;;;;;;25.30;52.82;97347.39;593254;239;68595;-68
2023/03/02 02:20:38;;;;;;;;;;;;;;;25.29;55.60;97343.11;593225;239;66335;-68
2023/03/02 02:23:07;;;;;;;;;;;;;;;25.29;54.69;97337.73;593257;239;62855;-68
2023/03/02 02:25:52;;;;;;;;;;;;;;;25.29;56.13;97337.73;593271;239;67199;-68
2023/03/02 02:28:21;;;;;;;;;;;;;;;25.27;54.29;97333.73;593223;239;66299;-70
2023/03/02 02:30:50;;;;;;;;;;;;;;;25.27;54.70;97337.22;593062;237;62703;-70
2023/03/02 02:33:19;;;;;;;;;;;;;;;25.26;53.88;97340.98;593246;239;69839;-70
2023/03/02 02:35:48;;;;;;;;;;;;;;;25.24;52.62;97329.73;593201;239;69048;-70
2023/03/02 02:38:17;;;;;;;;;;;;;;;25.25;56.55;97344.77;593225;239;62390;-70
2023/03/02 02:40:52;;;;;;;;;;;;;;;25.23;54.63;97338.88;593309;239;66470;-70
2023/03/02 02:43:22;;;;;;;;;;;;;;;25.23;54.07;97333.48;593236;239;68546;-70
2023/03/02 02:45:51;;;;;;;;;;;;;;;25.21;52.80;97344.55;593220;239;62988;-70
2023/03/02 02:48:21;;;;;;;;;;;;;;;25.21;53.87;97341.08;594303;236;68727;-70
2023/03/02 02:50:58;;;;;;;;;;;;;;;25.19;54.59;97341.35;599119;237;68535;-70
2023/03/02 02:53:22;;;;;;;;;;;;;;;25.19;52.90;97340.56;598850;237;62732;-70
2023/03/02 02:55:51;;;;;;;;;;;;;;;25.19;52.77;97351.31;599107;237;68661;-70
2023/03/02 02:58:26;;;;;;;;;;;;;;;25.19;55.83;97348.63;599112;237;69024;-70
2023/03/02 03:00:54;;;;;;;;;;;;;;;25.18;53.76;97341.63;599081;237;62483;-70
2023/03/02 03:03:29;;;;;;;;;;;;;;;25.17;52.97;97346.22;599131;237;68792;-70
2023/03/02 03:06:00;;;;;;;;;;;;;;;25.17;54.90;97345.42;599181;237;47649;-70
2023/03/02 03:08:43;;;;;;;;;;;;;;;25.15;52.61;97343.00;598979;237;65051;-70
2023/03/02 03:11:14;;;;;;;;;;;;;;;25.16;53.93;97343.83;599179;237;47291;-70
2023/03/02 03:13:43;;;;;;;;;;;;;;;25.15;53.56;97342.21;599119;237;66323;-70
2023/03/02 03:16:16;;;;;;;;;;;;;;;25.15;55.62;97339.52;599119;237;62978;-70
2023/03/02 03:18:44;;;;;;;;;;;;;;;25.14;54.27;97337.91;599115;237;69228;-70
2023/03/02 03:21:12;;;;;;;;;;;;;;;25.13;53.23;97336.31;599079;237;68976;-70
2023/03/02 03:23:39;;;;;;;;;;;;;;;25.13;55.17;97333.63;599161;237;62890;-70
2023/03/02 03:26:07;;;;;;;;;;;;;;;25.12;53.83;97329.31;599132;237;67372;-70
2023/03/02 03:28:35;;;;;;;;;;;;;;;25.11;54.07;97330.42;599130;237;68688;-70
2023/03/02 03:31:03;;;;;;;;;;;;;;;25.11;55.43;97335.80;599101;237;62338;-70
2023/03/02 03:33:30;;;;;;;;;;;;;;;25.10;53.79;97335.00;599140;237;68655;-70
2023/03/02 03:35:59;;;;;;;;;;;;;;;25.10;54.59;97336.87;599155;237;68560;-70
2023/03/02 03:38:27;;;;;;;;;;;;;;;25.09;54.61;97335.28;599153;237;65685;-70
2023/03/02 03:40:55;;;;;;;;;;;;;;;25.10;54.86;97334.18;599190;237;68929;-70
2023/03/02 03:43:22;;;;;;;;;;;;;;;25.08;55.29;97336.38;599179;237;66486;-70
2023/03/02 03:45:52;;;;;;;;;;;;;;;25.07;53.11;97335.56;599178;237;65615;-70
2023/03/02 03:48:21;;;;;;;;;;;;;;;25.08;53.91;97336.38;597886;236;48746;-70
2023/03/02 03:50:49;;;;;;;;;;;;;;;25.08;55.55;97339.07;593260;239;66436;-70
2023/03/02 03:53:17;;;;;;;;;;;;;;;25.06;54.87;97328.59;593318;239;64748;-69
2023/03/02 03:55:44;;;;;;;;;;;;;;;25.07;55.30;97340.14;593314;239;68448;-69
2023/03/02 03:58:13;;;;;;;;;;;;;;;25.05;54.28;97342.34;593280;239;66085;-69
2023/03/02 04:00:41;;;;;;;;;;;;;;;25.03;54.43;97346.10;593303;239;65584;-69
2023/03/02 04:03:09;;;;;;;;;;;;;;;25.03;53.30;97345.30;593340;239;68694;-69
2023/03/02 04:05:36;;;;;;;;;;;;;;;25.03;53.89;97343.41;593251;239;66135;-69
2023/03/02 04:08:04;;;;;;;;;;;;;;;25.02;54.28;97347.20;593305;239;65583;-69
2023/03/02 04:10:33;;;;;;;;;;;;;;;25.00;53.40;97341.30;593296;239;69265;-69
2023/03/02 04:13:01;;;;;;;;;;;;;;;25.00;53.59;97341.30;593292;239;66298;-69
2023/03/02 04:15:28;;;;;;;;;;;;;;;25.01;53.39;97342.09;593316;239;64780;-69
2023/03/02 04:17:58;;;;;;;;;;;;;;;25.00;53.87;97345.89;593259;239;66522;-69
2023/03/02 04:20:26;;;;;;;;;;;;;;;24.99;54.58;97337.03;593309;239;66079;-69
2023/03/02 04:22:56;;;;;;;;;;;;;;;24.99;56.17;97334.34;593290;239;65740;-69
2023/03/02 04:25:25;;;;;;;;;;;;;;;24.99;53.90;97338.89;593306;239;68955;-69
2023/03/02 04:27:54;;;;;;;;;;;;;;;24.97;54.63;97331.13;593323;238;46262;-69
2023/03/02 04:30:24;;;;;;;;;;;;;;;24.96;52.68;97332.23;593261;239;65613;-69
2023/03/02 04:32:53;;;;;;;;;;;;;;;24.96;53.45;97334.92;593302;239;66063;-69
2023/03/02 04:35:21;;;;;;;;;;;;;;;24.95;51.60;97338.68;593245;239;66447;-69
2023/03/02 04:37:49;;;;;;;;;;;;;;;24.95;54.81;97335.98;593325;239;62776;-69
2023/03/02 04:40:16;;;;;;;;;;;;;;;24.93;52.33;97334.67;593302;239;68699;-68
2023/03/02 04:42:44;;;;;;;;;;;;;;;24.93;54.12;97335.47;593274;239;68728;-68
2023/03/02 04:45:13;;;;;;;;;;;;;;;24.94;55.26;97341.67;593272;239;64909;-69
2023/03/02 04:47:41;;;;;;;;;;;;;;;24.92;51.81;97346.53;593296;239;68850;-69
2023/03/02 04:50:09;;;;;;;;;;;;;;;24.91;53.04;97343.05;593217;236;68489;-68
2023/03/02 04:52:37;;;;;;;;;;;;;;;24.91;54.09;97348.42;593328;239;65137;-69
2023/03/02 04:55:08;;;;;;;;;;;;;;;24.90;54.48;97336.05;593144;238;51276;-69
2023/03/02 04:57:35;;;;;;;;;;;;;;;24.90;52.94;97337.95;593271;239;68581;-68
2023/03/02 05:00:04;;;;;;;;;;;;;;;24.88;53.44;97338.25;593258;239;64998;-68
2023/03/02 05:02:31;;;;;;;;;;;;;;;24.87;53.80;97336.63;593294;239;66697;-68
2023/03/02 05:04:59;;;;;;;;;;;;;;;24.88;53.69;97338.25;593307;239;68719;-69
2023/03/02 05:07:28;;;;;;;;;;;;;;;24.87;54.81;97342.01;593365;239;44850;-68
2023/03/02 05:09:56;;;;;;;;;;;;;;;24.86;54.09;97340.42;593295;239;66689;-70
2023/03/02 05:12:23;;;;;;;;;;;;;;;24.86;55.12;97342.31;593284;239;67126;-70
2023/03/02 05:14:51;;;;;;;;;;;;;;;24.85;52.57;97344.17;593318;239;62792;-70
2023/03/02 05:17:18;;;;;;;;;;;;;;;24.84;55.65;97342.59;593312;239;66678;-70
2023/03/02 05:19:46;;;;;;;;;;;;;;;24.84;53.34;97341.80;593297;239;68709;-70
2023/03/02 05:22:13;;;;;;;;;;;;;;;24.83;52.76;97341.00;593316;239;64884;-70
2023/03/02 05:24:40;;;;;;;;;;;;;;;24.83;53.14;97351.75;593247;239;68786;-70
2023/03/02 05:27:08;;;;;;;;;;;;;;;24.83;52.85;97354.44;593311;239;68631;-70
2023/03/02 05:29:36;;;;;;;;;;;;;;;24.83;53.33;97346.38;593322;239;62941;-70
2023/03/02 05:32:03;;;;;;;;;;;;;;;24.81;53.22;97352.03;593280;239;66567;-70
2023/03/02 05:34:31;;;;;;;;;;;;;;;24.82;54.30;97355.52;593300;239;68614;-70
2023/03/02 05:36:58;;;;;;;;;;;;;;;24.80;51.94;97355.02;593315;239;65104;-69
2023/03/02 05:39:26;;;;;;;;;;;;;;;24.82;55.00;97358.20;593281;239;66385;-70
2023/03/02 05:41:55;;;;;;;;;;;;;;;24.81;53.43;97353.92;593331;239;68395;-70
2023/03/02 05:44:22;;;;;;;;;;;;;;;24.81;53.34;97354.72;593330;239;65158;-70
2023/03/02 05:46:50;;;;;;;;;;;;;;;24.81;53.13;97356.61;593329;239;68330;-70
2023/03/02 05:49:17;;;;;;;;;;;;;;;24.80;52.93;97357.70;593280;236;68655;-70
2023/03/02 05:51:45;;;;;;;;;;;;;;;24.81;52.94;97367.36;593281;239;65202;-70
2023/03/02 05:54:12;;;;;;;;;;;;;;;24.82;56.11;97366.27;593337;239;68518;-70
2023/03/02 05:56:40;;;;;;;;;;;;;;;24.80;53.08;97353.12;593340;239;68370;-69
2023/03/02 05:59:08;;;;;;;;;;;;;;;24.81;55.35;97359.30;593301;239;65171;-70
2023/03/02 06:01:35;;;;;;;;;;;;;;;24.81;53.92;97359.30;593316;239;68482;-70
2023/03/02 06:04:03;;;;;;;;;;;;;;;24.82;54.20;97358.20;593298;239;66585;-70
2023/03/02 06:06:31;;;;;;;;;;;;;;;24.80;53.19;97363.08;593309;239;62789;-70
2023/03/02 06:08:58;;;;;;;;;;;;;;;24.81;55.48;97356.61;593326;239;68342;-70
2023/03/02 06:11:29;;;;;;;;;;;;;;;24.80;54.18;97357.70;593100;239;68757;-70
2023/03/02 06:13:56;;;;;;;;;;;;;;;24.81;53.41;97365.47;593250;239;65084;-71
2023/03/02 06:16:24;;;;;;;;;;;;;;;24.81;52.33;97361.98;593273;239;69050;-69
2023/03/02 06:18:51;;;;;;;;;;;;;;;24.81;53.16;97364.67;593256;239;68770;-69
2023/03/02 06:21:18;;;;;;;;;;;;;;;24.81;53.46;97365.47;593283;239;64984;-69
2023/03/02 06:23:46;;;;;;;;;;;;;;;24.81;50.61;97370.05;593299;239;68527;-69
2023/03/02 06:26:13;;;;;;;;;;;;;;;24.81;52.49;97370.05;593276;239;66691;-70
2023/03/02 06:28:41;;;;;;;;;;;;;;;24.83;56.78;97367.06;593285;239;63017;-72
2023/03/02 06:31:08;;;;;;;;;;;;;;;24.82;55.15;97366.27;593319;239;68861;-69
2023/03/02 06:33:36;;;;;;;;;;;;;;;24.83;52.91;97373.26;593215;239;68792;-72
2023/03/02 06:36:07;;;;;;;;;;;;;;;24.82;52.92;97366.27;593294;239;65219;-72
2023/03/02 06:38:35;;;;;;;;;;;;;;;24.82;53.90;97366.27;593188;239;68901;-71
2023/03/02 06:41:03;;;;;;;;;;;;;;;24.84;54.27;97360.61;593132;239;68664;-69
2023/03/02 06:43:30;;;;;;;;;;;;;;;24.83;52.90;97362.50;593222;239;65037;-71
2023/03/02 06:45:59;;;;;;;;;;;;;;;24.84;52.91;97358.72;593079;239;69421;-69
2023/03/02 06:48:28;;;;;;;;;;;;;;;24.84;52.73;97364.09;594684;236;66475;-71
2023/03/02 06:50:56;;;;;;;;;;;;;;;24.85;54.13;97360.31;599179;237;65066;-70
2023/03/02 06:53:24;;;;;;;;;;;;;;;24.86;54.81;97363.82;599168;237;68768;-72
2023/03/02 06:55:51;;;;;;;;;;;;;;;24.85;52.17;97359.52;599119;237;68723;-70
2023/03/02 06:58:19;;;;;;;;;;;;;;;24.86;53.75;97356.55;597250;236;65177;-71
2023/03/02 07:00:46;;;;;;;;;;;;;;;24.87;52.54;97358.14;597491;237;68634;-69
2023/03/02 07:03:14;;;;;;;;;;;;;;;24.90;54.65;97370.20;596590;237;68846;-72
2023/03/02 07:05:41;;;;;;;;;;;;;;;24.90;52.62;97367.52;597263;237;65129;-71
2023/03/02 07:08:09;;;;;;;;;;;;;;;24.90;53.89;97371.00;597390;237;68657;-67
2023/03/02 07:10:38;;;;;;;;;;;;;;;24.92;54.04;97373.41;597168;237;68651;-72
2023/03/02 07:13:06;;;;;;;;;;;;;;;24.92;53.99;97376.11;597253;237;65046;-72
2023/03/02 07:15:33;;;;;;;;;;;;;;;24.94;53.84;97372.04;597317;237;68697;-70
2023/03/02 07:18:01;;;;;;;;;;;;;;;24.94;55.55;97358.59;597309;237;68441;-74
2023/03/02 07:20:29;;;;;;;;;;;;;;;24.96;54.16;97369.05;597381;237;64906;-70
2023/03/02 07:22:57;;;;;;;;;;;;;;;24.95;53.16;97360.19;597350;237;66196;-75
2023/03/02 07:25:24;;;;;;;;;;;;;;;24.98;55.42;97361.50;597237;237;69483;-73
2023/03/02 07:27:52;;;;;;;;;;;;;;;24.99;54.85;97374.67;597336;237;64990;-74
2023/03/02 07:30:20;;;;;;;;;;;;;;;25.01;52.42;97374.37;597431;237;68889;-75
2023/03/02 07:32:48;;;;;;;;;;;;;;;25.02;53.42;97376.78;597286;237;68480;-74
2023/03/02 07:35:16;;;;;;;;;;;;;;;25.05;52.82;97374.61;597347;237;64913;-73
2023/03/02 07:37:44;;;;;;;;;;;;;;;25.06;53.56;97370.82;597341;237;66461;-75
2023/03/02 07:40:13;;;;;;;;;;;;;;;25.07;53.29;97372.41;597094;237;48982;-74
2023/03/02 07:42:43;;;;;;;;;;;;;;;25.09;52.51;97364.86;597390;237;64861;-71
2023/03/02 07:45:11;;;;;;;;;;;;;;;25.10;52.12;97361.07;597734;237;68668;-71
2023/03/02 07:47:38;;;;;;;;;;;;;;;25.12;53.03;97364.28;599038;237;68570;-74
2023/03/02 07:50:06;;;;;;;;;;;;;;;25.14;52.86;97362.11;599091;236;64889;-69
2023/03/02 07:52:34;;;;;;;;;;;;;;;25.14;48.18;97362.11;599001;237;68637;-70
2023/03/02 07:55:01;;;;;;;;;;;;;;;25.16;51.81;97362.66;599083;237;68315;-72
2023/03/02 07:57:31;;;;;;;;;;;;;;;25.23;50.52;97360.39;599164;237;64923;-74
2023/03/02 07:59:59;;;;;;;;;;;;;;;25.22;53.93;97366.87;599033;237;66463;-71
2023/03/02 08:02:27;;;;;;;;;;;;;;;25.21;51.90;97381.42;599068;237;66459;-71
2023/03/02 08:04:54;;;;;;;;;;;;;;;25.21;52.83;97370.66;599050;237;64875;-72
2023/03/02 08:07:22;;;;;;;;;;;;;;;25.19;53.58;97370.94;599063;237;68767;-72
2023/03/02 08:09:49;;;;;;;;;;;;;;;25.21;53.48;97367.97;599147;237;68301;-74
2023/03/02 08:12:17;;;;;;;;;;;;;;;25.21;54.02;97368.77;599066;237;64977;-79
2023/03/02 08:14:44;;;;;;;;;;;;;;;25.20;52.76;97358.28;599057;237;68661;-70
2023/03/02 08:17:11;;;;;;;;;;;;;;;25.22;54.13;97364.18;599087;237;68951;-72
2023/03/02 08:19:39;;;;;;;;;;;;;;;25.24;55.44;97362.01;599082;237;64863;-72
2023/03/02 08:22:08;;;;;;;;;;;;;;;25.25;51.99;97358.22;599090;237;68709;-71
2023/03/02 08:24:35;;;;;;;;;;;;;;;25.27;53.77;97360.62;599064;237;68485;-70
2023/03/02 08:27:03;;;;;;;;;;;;;;;25.29;53.81;97356.56;599073;237;63850;-65
2023/03/02 08:29:31;;;;;;;;;;;;;;;25.30;52.23;97360.84;599066;237;66578;-70
2023/03/02 08:32:01;;;;;;;;;;;;;;;25.31;53.42;97365.12;599028;237;66690;-74
2023/03/02 08:34:28;;;;;;;;;;;;;;;25.30;47.23;97365.42;599120;237;62663;-71
2023/03/02 08:36:55;;;;;;;;;;;;;;;25.32;50.97;97368.60;599084;237;65894;-69
2023/03/02 08:39:23;;;;;;;;;;;;;;;25.34;51.77;97366.43;599104;237;66839;-71
2023/03/02 08:41:51;;;;;;;;;;;;;;;25.36;49.92;97364.25;598995;237;63015;-68
2023/03/02 08:44:24;;;;;;;;;;;;;;;25.39;50.00;97359.08;598981;237;67226;-72
2023/03/02 08:46:49;;;;;;;;;;;;;;;25.40;48.87;97360.70;598804;236;66196;-70
2023/03/02 08:49:18;;;;;;;;;;;;;;;25.44;49.41;97360.91;599097;236;65424;-68
2023/03/02 08:51:45;;;;;;;;;;;;;;;25.44;51.27;97359.02;598965;236;68851;-68
2023/03/02 08:54:13;;;;;;;;;;;;;;;25.45;50.58;97352.56;599092;237;66506;-71
2023/03/02 08:56:42;;;;;;;;;;;;;;;25.47;50.37;97358.42;599066;237;64740;-68
2023/03/02 08:59:11;;;;;;;;;;;;;;;25.47;48.91;97361.12;599060;237;68991;-69
2023/03/02 09:01:39;;;;;;;;;;;;;;;25.51;48.05;97360.53;598931;237;68747;-67
2023/03/02 09:04:07;;;;;;;;;;;;;;;25.54;49.47;97359.97;599026;237;65099;-68
2023/03/02 09:06:37;;;;;;;;;;;;;;;25.54;50.59;97354.59;599049;236;68851;-70
2023/03/02 09:09:04;;;;;;;;;;;;;;;25.55;49.23;97358.87;598906;237;68776;-75
2023/03/02 09:11:32;;;;;;;;;;;;;;;25.55;51.07;97356.97;599063;236;64994;-79
2023/03/02 09:14:01;;;;;;;;;;;;;;;25.57;49.94;97349.41;599133;237;68619;-75
2023/03/02 09:16:29;;;;;;;;;;;;;;;25.60;48.84;97348.03;599061;237;68706;-65
2023/03/02 09:18:56;;;;;;;;;;;;;;;25.64;49.22;97355.20;599060;237;65064;-65
2023/03/02 09:21:24;;;;;;;;;;;;;;;25.68;49.64;97348.16;599114;237;68853;-75
2023/03/02 09:23:54;;;;;;;;;;;;;;;25.73;50.54;97349.16;599104;237;68327;-68
2023/03/02 09:26:21;;;;;;;;;;;;;;;25.74;46.96;97346.18;598941;237;62185;-72
2023/03/02 09:28:48;;;;;;;;;;;;;;;25.78;48.93;97343.70;599654;236;68800;-74
2023/03/02 09:31:16;;;;;;;;;;;;;;;25.80;49.13;97347.69;599726;236;68851;-69
2023/03/02 09:33:43;;;;;;;;;;;;;;;25.80;49.13;97342.31;599729;236;64897;-71
2023/03/02 09:36:12;;;;;;;;;;;;;;;25.81;50.04;97341.23;599766;236;66495;-69
2023/03/02 09:38:40;;;;;;;;;;;;;;;25.81;48.93;97349.31;599777;236;66647;-69
2023/03/02 09:41:09;;;;;;;;;;;;;;;25.82;50.26;97353.59;599776;236;62971;-71
2023/03/02 09:43:47;;;;;;;;;;;;;;;25.82;47.49;97348.20;599816;236;66380;-70
2023/03/02 09:46:21;;;;;;;;;;;;;;;25.85;48.68;97344.16;599680;236;66293;-71
2023/03/02 09:48:50;;;;;;;;;;;;;;;25.85;48.84;97346.84;599656;236;62769;-70
2023/03/02 09:51:19;;;;;;;;;;;;;;;25.84;48.19;97337.98;599395;236;68282;-73
2023/03/02 09:53:48;;;;;;;;;;;;;;;25.85;46.74;97338.77;598841;236;66185;-70
2023/03/02 09:56:17;;;;;;;;;;;;;;;25.85;47.87;97334.18;599623;236;65284;-71
2023/03/02 09:58:46;;;;;;;;;;;;;;;25.88;47.20;97333.59;599786;236;68666;-73
2023/03/02 10:01:15;;;;;;;;;;;;;;;25.88;48.07;97335.48;599690;236;66254;-74
2023/03/02 10:03:56;;;;;;;;;;;;;;;25.89;45.26;97329.82;599776;236;62788;-73
2023/03/02 10:06:25;;;;;;;;;;;;;;;25.90;47.70;97327.92;599315;236;68448;-75
2023/03/02 10:08:53;;;;;;;;;;;;;;;25.90;47.80;97333.30;599765;236;68359;-71
2023/03/02 10:11:31;;;;;;;;;;;;;;;25.90;48.44;97322.53;599775;236;65113;-73
2023/03/02 10:14:02;;;;;;;;;;;;;;;25.90;46.91;97326.02;599556;236;66540;-71
2023/03/02 10:16:37;;;;;;;;;;;;;;;25.91;48.15;97324.91;599515;236;68942;-71
2023/03/02 10:19:23;;;;;;;;;;;;;;;25.92;47.98;97328.43;599767;236;64892;-68
2023/03/02 10:21:52;;;;;;;;;;;;;;;25.93;45.90;97321.15;599720;236;66507;-68
2023/03/02 10:24:22;;;;;;;;;;;;;;;25.90;46.57;97326.02;599518;236;66595;-70
2023/03/02 10:26:51;;;;;;;;;;;;;;;25.91;47.05;97322.22;599800;236;63842;-71
2023/03/02 10:29:20;;;;;;;;;;;;;;;25.90;44.12;97323.33;599482;236;66569;-71
2023/03/02 10:31:52;;;;;;;;;;;;;;;25.90;45.08;97312.56;599791;236;68438;-71
2023/03/02 10:34:19;;;;;;;;;;;;;;;25.91;46.22;97322.22;599765;236;64893;-69
2023/03/02 10:36:46;;;;;;;;;;;;;;;25.91;45.96;97321.43;599719;236;68950;-69
2023/03/02 10:39:15;;;;;;;;;;;;;;;25.91;48.31;97316.84;599677;236;68698;-69
2023/03/02 10:41:48;;;;;;;;;;;;;;;25.92;46.75;97317.66;599799;236;65094;-71
2023/03/02 10:44:19;;;;;;;;;;;;;;;25.91;45.23;97311.45;599697;236;69222;-74
2023/03/02 10:46:46;;;;;;;;;;;;;;;25.92;47.66;97306.89;599756;236;66822;-71
2023/03/02 10:49:18;;;;;;;;;;;;;;;25.94;47.09;97311.97;597590;236;62793;-73
2023/03/02 10:51:47;;;;;;;;;;;;;;;25.95;44.89;97316.27;595747;238;68774;-73
2023/03/02 10:54:15;;;;;;;;;;;;;;;25.98;44.28;97310.30;595548;238;68537;-73
2023/03/02 10:56:46;;;;;;;;;;;;;;;25.98;44.69;97299.52;595007;238;46706;-71
2023/03/02 10:59:27;;;;;;;;;;;;;;;26.01;45.51;97307.00;592620;238;68645;-69
2023/03/02 11:02:06;;;;;;;;;;;;;;;26.01;45.43;97305.10;592624;238;50522;-69
2023/03/02 11:04:35;;;;;;;;;;;;;;;26.02;44.36;97306.69;592559;238;46214;-68
2023/03/02 11:07:11;;;;;;;;;;;;;;;26.03;46.77;97302.13;592595;239;68622;-68
2023/03/02 11:09:38;;;;;;;;;;;;;;;26.04;45.01;97301.02;592760;238;66681;-69
2023/03/02 11:12:09;;;;;;;;;;;;;;;26.05;46.32;97306.09;592895;238;43980;-72
2023/03/02 11:14:38;;;;;;;;;;;;;;;26.06;44.48;97304.22;592801;238;53720;-70
2023/03/02 11:17:26;;;;;;;;;;;;;;;26.07;45.00;97308.50;592880;239;68534;-70
2023/03/02 11:19:56;;;;;;;;;;;;;;;26.08;44.10;97299.31;586152;242;45009;-70
2023/03/02 11:22:37;;;;;;;;;;;;;;;26.08;45.01;97307.39;590768;240;66819;-71
2023/03/02 11:25:06;;;;;;;;;;;;;;;26.08;45.39;97302.01;593617;237;66590;-69
2023/03/02 11:27:35;;;;;;;;;;;;;;;26.09;45.28;97301.72;597366;237;63084;-72
2023/03/02 11:30:04;;;;;;;;;;;;;;;26.09;44.25;97299.03;597681;237;66444;-69
2023/03/02 11:32:33;;;;;;;;;;;;;;;26.10;44.91;97300.62;596999;237;68708;-78
2023/03/02 11:35:02;;;;;;;;;;;;;;;26.08;42.71;97302.83;597359;237;64972;-72
2023/03/02 11:37:31;;;;;;;;;;;;;;;26.07;41.42;97303.12;597506;237;68694;-74
2023/03/02 11:40:18;;;;;;;;;;;;;;;26.09;43.90;97306.31;595733;237;68612;-74
2023/03/02 11:42:46;;;;;;;;;;;;;;;26.08;47.07;97304.70;595533;237;65741;-74
2023/03/02 11:45:15;;;;;;;;;;;;;;;26.07;46.87;97308.50;596115;237;68718;-74
2023/03/02 11:47:47;;;;;;;;;;;;;;;26.07;47.27;97300.42;595699;237;68466;-73
2023/03/02 11:50:15;;;;;;;;;;;;;;;26.06;46.72;97305.02;597928;236;64868;-72
2023/03/02 11:52:46;;;;;;;;;;;;;;;26.06;46.90;97306.91;597909;236;50029;-74
2023/03/02 11:55:17;;;;;;;;;;;;;;;26.05;47.87;97306.09;598683;237;66209;-73
2023/03/02 11:57:49;;;;;;;;;;;;;;;26.06;47.34;97299.62;599067;237;64947;-75
2023/03/02 12:00:33;;;;;;;;;;;;;;;26.06;48.04;97310.41;598173;237;68678;-74
2023/03/02 12:03:02;;;;;;;;;;;;;;;26.06;48.77;97301.53;598904;237;68697;-74
2023/03/02 12:05:30;;;;;;;;;;;;;;;26.07;47.01;97295.03;599044;237;62705;-72
2023/03/02 12:08:00;;;;;;;;;;;;;;;26.06;48.27;97293.45;599019;237;66530;-76
2023/03/02 12:10:31;;;;;;;;;;;;;;;26.05;47.36;97294.52;598977;237;66745;-75
2023/03/02 12:13:04;;;;;;;;;;;;;;;26.06;48.38;97290.75;599038;237;62775;-75
2023/03/02 12:15:36;;;;;;;;;;;;;;;26.06;47.45;97298.83;598010;237;68585;-73
2023/03/02 12:18:04;;;;;;;;;;;;;;;26.06;48.51;97296.94;598955;237;67486;-74
2023/03/02 12:20:32;;;;;;;;;;;;;;;26.05;48.38;97289.94;598571;237;65273;-74
2023/03/02 12:23:06;;;;;;;;;;;;;;;26.05;48.25;97289.14;598984;237;68411;-75
2023/03/02 12:25:38;;;;;;;;;;;;;;;26.05;47.03;97292.63;592498;237;50612;-76
2023/03/02 12:28:09;;;;;;;;;;;;;;;26.07;48.22;97292.34;599065;237;44824;-78
2023/03/02 12:30:36;;;;;;;;;;;;;;;26.07;46.83;97295.83;598178;237;68968;-74
2023/03/02 12:33:11;;;;;;;;;;;;;;;26.08;48.00;97296.63;599032;237;68684;-75
2023/03/02 12:35:39;;;;;;;;;;;;;;;26.07;47.74;97293.13;599023;237;62775;-75
2023/03/02 12:38:08;;;;;;;;;;;;;;;26.07;47.35;97295.03;598905;237;66592;-74
2023/03/02 12:40:43;;;;;;;;;;;;;;;26.07;47.66;97293.13;598576;237;66489;-73
2023/03/02 12:43:17;;;;;;;;;;;;;;;26.07;47.75;97284.27;598502;237;64890;-72
2023/03/02 12:45:50;;;;;;;;;;;;;;;26.08;46.47;97288.54;598934;237;68744;-69
2023/03/02 12:48:21;;;;;;;;;;;;;;;26.09;46.60;97280.17;598979;236;68509;-73
2023/03/02 12:50:49;;;;;;;;;;;;;;;26.09;46.96;97282.08;599148;236;65086;-73
2023/03/02 12:53:20;;;;;;;;;;;;;;;26.10;46.24;97283.66;599126;236;68652;-75
2023/03/02 12:55:47;;;;;;;;;;;;;;;26.11;45.84;97285.28;599235;236;66650;-76
2023/03/02 12:58:31;;;;;;;;;;;;;;;26.13;44.35;97280.37;599030;236;64206;-79